Time;durP1;ratioP1;P1;durP2;ratioP2;P2;SDS_P1;SDS_P2;PMS_P1;PMS_P2;Temp;Humidity;BMP_temperature;BMP_pressure;BME280_temperature;BME280_humidity;BME280_pressure;Samples;Min_cycle;Max_cycle;Signal;HPM_P1;HPM_P2
2022/05/05 00:00:54;;;;;;;18.92;11.43;;;;;;;9.23;65.35;99258.33;4080484;85;21052;-85
2022/05/05 00:06:55;;;;;;;13.95;9.73;;;;;;;8.99;64.83;99255.09;4094396;85;21052;-85
2022/05/05 00:19:16;;;;;;;21.23;12.90;;;;;;;8.74;66.04;99259.22;4116265;85;21088;-84
2022/05/05 00:25:18;;;;;;;17.98;12.63;;;;;;;8.35;66.49;99273.89;4114143;85;21604;-85
2022/05/05 00:31:19;;;;;;;23.32;12.85;;;;;;;8.25;67.24;99269.76;4113662;85;21098;-84
2022/05/05 00:37:20;;;;;;;24.80;15.65;;;;;;;8.31;68.00;99272.44;4115295;84;21065;-85
2022/05/05 00:43:23;;;;;;;27.65;15.55;;;;;;;8.14;67.30;99275.49;4108543;85;21734;-85
2022/05/05 00:49:26;;;;;;;23.55;15.10;;;;;;;7.86;67.89;99259.78;4119263;84;21065;-84
2022/05/05 00:55:30;;;;;;;21.15;15.18;;;;;;;7.68;68.33;99272.94;4121527;85;21072;-85
2022/05/05 01:01:34;;;;;;;24.05;15.72;;;;;;;7.50;68.40;99265.42;4112650;85;21061;-84
2022/05/05 01:46:05;;;;;;;22.82;15.88;;;;;;;7.04;71.28;99269.56;4174975;81;21066;-80
2022/05/05 01:52:10;;;;;;;28.85;16.73;;;;;;;6.92;70.66;99281.05;4222638;82;21070;-80
2022/05/05 01:58:11;;;;;;;28.40;17.80;;;;;;;6.59;71.20;99274.98;4238895;80;47484;-80
2022/05/05 02:04:13;;;;;;;23.25;14.40;;;;;;;6.45;71.81;99267.18;4127187;84;21031;-80
2022/05/05 02:10:18;;;;;;;28.55;17.73;;;;;;;6.66;72.91;99273.27;4123041;84;21008;-81
2022/05/05 02:16:20;;;;;;;27.98;17.70;;;;;;;6.61;72.39;99271.36;4133647;84;21055;-80
2022/05/05 02:22:21;;;;;;;26.60;18.17;;;;;;;6.56;72.22;99268.87;4128672;84;21587;-80
2022/05/05 02:28:23;;;;;;;26.93;18.52;;;;;;;6.37;72.90;99270.80;4130505;84;21491;-80
2022/05/05 02:34:24;;;;;;;23.38;15.45;;;;;;;6.30;73.40;99271.37;4125159;84;21031;-80
2022/05/05 02:40:26;;;;;;;29.57;17.37;;;;;;;6.34;73.95;99283.72;4131433;84;21579;-80
2022/05/05 02:46:28;;;;;;;26.33;17.85;;;;;;;6.24;73.74;99275.45;4127321;84;21562;-81
2022/05/05 02:52:29;;;;;;;26.90;18.27;;;;;;;6.19;74.26;99272.95;4080560;85;21076;-80
2022/05/05 02:58:31;;;;;;;31.23;19.10;;;;;;;6.15;73.94;99276.69;4077172;85;21567;-80
2022/05/05 03:04:32;;;;;;;27.32;18.42;;;;;;;6.06;74.47;99275.42;4077590;85;21088;-81
2022/05/05 03:10:34;;;;;;;21.10;14.30;;;;;;;6.10;75.30;99287.77;4085804;86;21532;-79
2022/05/05 03:16:36;;;;;;;24.43;16.45;;;;;;;6.35;76.06;99280.66;4074585;85;21016;-80
2022/05/05 03:22:39;;;;;;;22.25;16.02;;;;;;;6.62;75.74;99288.70;4072964;85;21096;-80
2022/05/05 03:28:44;;;;;;;28.00;16.20;;;;;;;6.58;75.33;99298.66;4079046;85;21073;-80
2022/05/05 03:34:47;;;;;;;26.95;17.67;;;;;;;6.63;75.90;99307.95;3979037;87;21112;-80
2022/05/05 03:40:50;;;;;;;20.45;15.38;;;;;;;6.62;75.67;99308.30;3963589;88;21068;-79
2022/05/05 03:46:52;;;;;;;27.80;18.37;;;;;;;6.70;76.10;99320.99;3953484;88;21079;-80
2022/05/05 03:52:54;;;;;;;27.82;18.45;;;;;;;6.67;75.85;99318.37;3954025;88;21181;-81
2022/05/05 03:58:55;;;;;;;36.95;22.05;;;;;;;6.53;75.84;99308.98;3953816;88;21095;-79
2022/05/05 04:04:59;;;;;;;25.52;17.37;;;;;;;6.48;76.16;99311.93;3962555;88;21619;-80
2022/05/05 04:11:01;;;;;;;23.95;17.20;;;;;;;6.61;77.07;99311.58;3952879;88;20989;-80
2022/05/05 04:17:03;;;;;;;31.48;20.12;;;;;;;6.96;77.31;99311.32;3966257;88;21173;-80
2022/05/05 04:23:06;;;;;;;33.25;19.73;;;;;;;7.09;76.39;99316.97;3993543;87;21055;-80
2022/05/05 04:29:09;;;;;;;34.92;22.13;;;;;;;7.33;77.22;99318.25;3974004;88;22232;-80
2022/05/05 04:35:11;;;;;;;30.10;21.27;;;;;;;7.59;77.56;99321.34;4074921;85;20999;-80
2022/05/05 04:41:13;;;;;;;27.65;19.67;;;;;;;7.90;77.67;99326.06;4076115;85;21661;-80
2022/05/05 04:47:14;;;;;;;27.17;18.32;;;;;;;8.35;77.74;99339.36;4080044;84;21087;-81
2022/05/05 04:53:16;;;;;;;26.15;18.52;;;;;;;8.64;77.33;99346.52;4139576;85;21557;-81
2022/05/05 04:59:17;;;;;;;28.52;17.80;;;;;;;8.85;76.39;99347.57;4141566;84;21047;-81
2022/05/05 05:05:19;;;;;;;25.92;16.17;;;;;;;9.02;76.41;99341.16;4140944;84;21943;-81
2022/05/05 05:11:21;;;;;;;24.45;15.63;;;;;;;9.24;76.60;99327.39;4143546;84;21064;-81
2022/05/05 05:17:22;;;;;;;24.30;15.88;;;;;;;9.47;76.80;99341.36;4139094;85;21135;-81
2022/05/05 05:23:26;;;;;;;20.60;16.30;;;;;;;9.75;76.64;99338.99;4076429;86;21064;-81
2022/05/05 05:29:28;;;;;;;22.48;16.52;;;;;;;9.98;76.24;99346.66;4002235;86;21132;-81
2022/05/05 05:35:30;;;;;;;22.93;16.40;;;;;;;10.14;76.01;99355.59;3976960;87;21161;-81
2022/05/05 05:41:31;;;;;;;23.27;14.83;;;;;;;10.35;75.65;99346.41;3979379;87;21583;-81
2022/05/05 05:47:33;;;;;;;21.62;14.38;;;;;;;10.45;75.55;99341.69;3982801;87;21155;-81
2022/05/05 05:53:36;;;;;;;24.67;14.25;;;;;;;10.57;75.54;99344.25;3979122;87;22028;-81
2022/05/05 05:59:37;;;;;;;20.97;14.15;;;;;;;10.73;75.57;99355.27;3975008;87;20986;-81
2022/05/05 06:05:39;;;;;;;25.80;14.45;;;;;;;10.80;75.37;99352.66;3973897;87;21123;-81
2022/05/05 06:11:41;;;;;;;22.52;14.93;;;;;;;10.94;75.28;99357.55;3967950;87;21031;-81
2022/05/05 06:17:43;;;;;;;26.87;16.12;;;;;;;11.17;75.26;99354.73;4120770;85;21653;-81
2022/05/05 06:23:44;;;;;;;24.02;15.45;;;;;;;11.60;75.35;99345.94;4114610;85;21610;-82
2022/05/05 06:29:48;;;;;;;23.98;14.33;;;;;;;12.02;75.05;99346.47;4047882;86;21048;-80
2022/05/05 06:35:49;;;;;;;24.67;15.20;;;;;;;12.46;74.79;99358.29;3981323;87;21702;-80
2022/05/05 06:41:51;;;;;;;23.85;13.83;;;;;;;12.83;74.31;99353.50;4116586;85;21736;-82
2022/05/05 06:47:53;;;;;;;26.25;14.03;;;;;;;13.13;74.15;99360.22;4119138;85;21512;-81
2022/05/05 06:53:55;;;;;;;21.48;13.72;;;;;;;13.46;73.71;99362.20;4118037;85;21093;-82
2022/05/05 06:59:56;;;;;;;24.00;13.03;;;;;;;13.87;73.41;99368.28;4113779;84;21019;-79
2022/05/05 07:05:58;;;;;;;17.07;12.20;;;;;;;14.05;73.03;99361.66;4116519;85;21307;-81
2022/05/05 07:11:59;;;;;;;18.77;11.00;;;;;;;14.28;72.52;99358.61;4119075;85;21062;-81
2022/05/05 07:18:01;;;;;;;20.27;11.28;;;;;;;14.62;71.97;99363.16;4122591;83;21107;-81
2022/05/05 07:24:04;;;;;;;20.97;10.50;;;;;;;15.03;72.03;99359.63;4114401;85;21035;-80
2022/05/05 07:30:07;;;;;;;14.90;9.15;;;;;;;15.55;71.45;99367.02;4032959;85;22102;-81
2022/05/05 07:36:10;;;;;;;20.12;8.45;;;;;;;16.20;70.63;99364.98;3967714;87;21153;-81
2022/05/05 07:42:12;;;;;;;12.50;7.70;;;;;;;16.78;69.89;99359.48;4115640;85;21082;-81
2022/05/05 07:48:13;;;;;;;8.80;6.45;;;;;;;17.61;68.95;99371.55;4117204;85;21059;-82
2022/05/05 08:00:37;;;;;;;5.72;4.37;;;;;;;19.08;66.60;99353.43;4110443;85;21571;-80
2022/05/05 08:06:40;;;;;;;8.68;4.97;;;;;;;19.64;65.68;99353.80;4114684;85;21670;-80
2022/05/05 08:12:42;;;;;;;6.87;4.03;;;;;;;19.75;62.42;99356.35;4123911;84;22365;-80
2022/05/05 08:18:43;;;;;;;7.20;4.25;;;;;;;19.88;62.33;99353.12;4112990;85;20995;-80
2022/05/05 08:31:04;;;;;;;6.17;4.05;;;;;;;19.64;57.29;99353.80;4100831;85;22218;-81
2022/05/05 08:37:06;;;;;;;5.50;4.35;;;;;;;19.67;56.89;99359.88;4087593;85;21008;-80
2022/05/05 08:43:08;;;;;;;7.03;4.05;;;;;;;20.00;56.92;99360.20;4090778;85;21056;-80
2022/05/05 08:49:11;;;;;;;4.90;3.83;;;;;;;19.98;52.92;99359.84;4086600;85;21060;-80
2022/05/05 08:55:14;;;;;;;6.12;4.40;;;;;;;20.32;54.62;99357.36;4069475;85;21060;-81
2022/05/05 09:01:16;;;;;;;4.90;3.92;;;;;;;20.73;54.19;99349.25;4093228;85;22024;-80
2022/05/05 09:07:19;;;;;;;6.40;4.80;;;;;;;20.86;51.12;99358.48;4090034;85;21082;-81
2022/05/05 09:13:25;;;;;;;7.35;4.25;;;;;;;21.11;52.50;99348.30;4092183;85;21028;-81
2022/05/05 09:19:29;;;;;;;5.12;3.58;;;;;;;21.51;52.78;99344.06;4080101;85;21068;-80
2022/05/05 09:25:47;;;;;;;4.65;3.17;;;;;;;22.35;50.57;99351.20;4081170;84;21040;-81
2022/05/05 09:31:50;;;;;;;5.30;2.60;;;;;;;23.16;51.16;99350.14;4087787;85;21118;-83
2022/05/05 09:37:54;;;;;;;3.85;2.72;;;;;;;24.43;49.13;99339.94;4089268;85;21019;-83
2022/05/05 09:44:03;;;;;;;3.58;2.62;;;;;;;24.37;47.13;99336.95;4082481;85;21060;-83
2022/05/05 09:50:06;;;;;;;4.58;2.47;;;;;;;24.83;46.55;99344.14;4084368;85;22011;-82
2022/05/05 10:08:57;;;;;;;7.00;2.58;;;;;;;26.68;42.42;99336.44;4085870;85;21035;-82
2022/05/05 10:15:02;;;;;;;3.87;2.47;;;;;;;27.11;40.77;99323.22;4088921;85;21060;-82
2022/05/05 10:21:38;;;;;;;3.10;2.80;;;;;;;27.22;40.86;99324.07;4086120;85;21099;-82
2022/05/05 10:27:44;;;;;;;4.53;2.65;;;;;;;26.99;38.52;99324.24;4078769;85;20989;-81
2022/05/05 10:34:01;;;;;;;4.53;2.67;;;;;;;27.09;39.08;99321.50;4120770;85;21076;-82
2022/05/05 10:40:11;;;;;;;4.65;2.77;;;;;;;27.25;39.10;99324.55;4112435;85;21007;-82
2022/05/05 10:46:51;;;;;;;5.08;3.17;;;;;;;26.46;34.74;99328.06;4119817;85;21956;-82
2022/05/05 10:52:55;;;;;;;10.70;3.42;;;;;;;25.95;37.67;99320.39;4122976;85;21573;-81
2022/05/05 10:59:10;;;;;;;4.10;2.42;;;;;;;26.04;37.80;99318.23;4122744;85;21062;-82
2022/05/05 11:05:29;;;;;;;4.42;3.02;;;;;;;27.21;37.35;99308.48;4122570;85;21321;-81
2022/05/05 11:11:40;;;;;;;4.90;3.05;;;;;;;27.52;36.32;99307.47;4120215;85;21967;-82
2022/05/05 11:24:29;;;;;;;2.65;2.00;;;;;;;28.62;33.98;99286.92;4121172;85;21480;-82
2022/05/05 11:30:31;;;;;;;4.22;2.00;;;;;;;29.05;34.74;99297.25;4122546;84;21035;-82
2022/05/05 11:36:37;;;;;;;2.85;2.10;;;;;;;29.29;34.40;99288.60;4118915;85;21039;-82
2022/05/05 11:49:06;;;;;;;3.12;2.58;;;;;;;29.33;32.80;99284.95;4113530;84;21051;-81
2022/05/05 11:55:09;;;;;;;2.15;1.95;;;;;;;29.23;31.75;99279.94;4112917;85;21575;-80
2022/05/05 12:07:32;;;;;;;3.22;2.35;;;;;;;27.11;31.80;99280.31;4110127;85;21496;-80
2022/05/05 12:13:35;;;;;;;7.22;2.20;;;;;;;27.15;31.55;99275.27;4116190;85;21066;-81
2022/05/05 12:19:48;;;;;;;5.78;2.40;;;;;;;27.23;31.16;99268.81;4086125;85;21733;-82
2022/05/05 12:25:52;;;;;;;4.17;2.27;;;;;;;27.13;30.91;99265.92;4112277;85;21044;-82
2022/05/05 12:31:57;;;;;;;3.45;2.50;;;;;;;27.04;31.52;99270.83;4084796;84;21100;-81
2022/05/05 12:38:00;;;;;;;7.97;2.92;;;;;;;26.78;31.41;99263.50;4050123;85;21435;-82
2022/05/05 12:44:08;;;;;;;7.03;2.87;;;;;;;25.75;32.84;99258.44;4049231;86;21067;-81
2022/05/05 12:50:35;;;;;;;4.00;2.62;;;;;;;24.23;35.10;99259.17;4048352;85;21010;-83
2022/05/05 13:02:57;;;;;;;3.55;2.67;;;;;;;22.95;37.79;99250.98;4039648;86;21583;-82
2022/05/05 13:08:59;;;;;;;6.95;3.27;;;;;;;22.61;37.68;99253.14;4043090;86;21213;-82
2022/05/05 13:15:08;;;;;;;5.80;3.15;;;;;;;22.52;38.14;99257.20;4047856;86;21028;-82
2022/05/05 13:21:11;;;;;;;6.42;2.87;;;;;;;22.21;39.98;99249.84;4067293;86;21927;-82
2022/05/05 13:27:12;;;;;;;4.15;2.83;;;;;;;21.85;40.80;99254.97;4044982;86;21109;-82
2022/05/05 13:33:15;;;;;;;4.00;2.60;;;;;;;21.76;41.55;99250.05;4103276;83;21027;-82
2022/05/05 13:39:19;;;;;;;4.80;3.15;;;;;;;21.90;42.87;99251.61;4122324;85;21003;-83
2022/05/05 13:45:21;;;;;;;5.92;2.80;;;;;;;21.85;42.69;99253.58;4192431;85;20994;-82
2022/05/05 13:51:25;;;;;;;7.10;2.42;;;;;;;21.79;42.78;99249.76;4099291;85;21550;-83
2022/05/05 13:57:27;;;;;;;4.90;2.52;;;;;;;21.96;42.86;99247.05;4117503;83;21031;-83
2022/05/05 14:03:30;;;;;;;6.62;3.05;;;;;;;22.28;42.75;99244.84;4114843;85;22075;-81
2022/05/05 14:15:51;;;;;;;5.60;2.70;;;;;;;22.49;41.48;99245.52;4116745;85;21022;-82
2022/05/05 14:21:55;;;;;;;4.08;2.30;;;;;;;22.05;41.65;99245.78;4118848;85;21340;-81
2022/05/05 14:27:57;;;;;;;4.53;2.85;;;;;;;21.68;42.61;99249.45;4117042;85;21106;-80
2022/05/05 14:34:00;;;;;;;4.78;2.65;;;;;;;21.42;43.03;99256.80;4112057;84;21106;-81
2022/05/05 14:40:03;;;;;;;4.37;2.45;;;;;;;21.29;43.60;99262.32;4110553;85;21143;-81
2022/05/05 14:46:06;;;;;;;3.47;2.60;;;;;;;21.51;44.02;99253.54;4112697;84;20980;-82
2022/05/05 14:52:09;;;;;;;4.15;2.30;;;;;;;21.65;44.41;99262.08;4105267;84;21090;-82
2022/05/05 14:58:11;;;;;;;4.72;2.30;;;;;;;21.67;46.10;99272.18;4111192;85;21116;-82
2022/05/05 15:04:12;;;;;;;3.70;1.90;;;;;;;21.39;45.49;99264.01;4105897;85;21496;-85
2022/05/05 15:10:13;;;;;;;3.50;2.17;;;;;;;21.25;45.97;99260.23;4104175;84;21058;-81
2022/05/05 15:16:15;;;;;;;4.75;2.25;;;;;;;21.03;46.13;99262.66;4115014;85;21540;-82
2022/05/05 15:22:16;;;;;;;3.15;2.08;;;;;;;20.86;46.43;99255.53;4026548;87;21099;-83
2022/05/05 15:28:18;;;;;;;3.50;2.25;;;;;;;20.83;46.56;99259.95;4110357;85;21043;-82
2022/05/05 15:34:19;;;;;;;5.53;2.10;;;;;;;20.97;46.93;99260.23;4111620;85;21221;-81
2022/05/05 15:40:25;;;;;;;2.87;2.00;;;;;;;20.98;46.74;99263.19;4102901;84;21579;-81
2022/05/05 15:46:27;;;;;;;3.27;2.10;;;;;;;21.02;47.30;99256.90;4113578;85;21015;-82
2022/05/05 15:52:29;;;;;;;3.00;2.40;;;;;;;20.95;47.00;99254.29;4030073;85;21129;-79
2022/05/05 15:58:30;;;;;;;3.40;2.40;;;;;;;20.90;46.42;99243.69;4106134;85;21070;-81
2022/05/05 16:04:32;;;;;;;4.33;2.60;;;;;;;20.77;46.21;99231.70;4107116;85;21190;-81
2022/05/05 16:10:37;;;;;;;12.05;6.83;;;;;;;20.67;46.41;99229.99;4103099;85;21007;-79
2022/05/05 16:16:39;;;;;;;7.28;2.98;;;;;;;20.65;46.60;99233.81;4107431;85;21024;-82
2022/05/05 16:22:40;;;;;;;3.52;2.17;;;;;;;20.67;46.18;99239.73;4110488;85;21018;-82
2022/05/05 16:35:03;;;;;;;6.95;3.77;;;;;;;20.52;46.26;99246.84;3993853;87;21028;-82
2022/05/05 16:41:08;;;;;;;4.83;2.30;;;;;;;20.43;46.36;99253.03;4110727;85;21153;-82
2022/05/05 16:47:10;;;;;;;3.83;2.27;;;;;;;20.29;46.40;99258.94;4106723;85;21015;-81
2022/05/05 16:53:13;;;;;;;6.28;2.90;;;;;;;20.13;46.55;99271.39;4109411;85;21020;-82
2022/05/05 16:59:16;;;;;;;5.85;2.90;;;;;;;19.92;47.27;99280.22;3993948;85;10000133;-81
2022/05/05 17:05:18;;;;;;;3.72;2.67;;;;;;;19.72;47.38;99282.22;4112436;84;21047;-82
2022/05/05 17:11:20;;;;;;;7.42;3.67;;;;;;;19.61;47.75;99290.78;4113437;85;21007;-82
2022/05/05 17:17:23;;;;;;;5.72;2.87;;;;;;;19.48;48.07;99294.01;4117244;85;21095;-81
2022/05/05 17:23:25;;;;;;;71.80;32.38;;;;;;;19.27;48.57;99298.57;4029633;87;21895;-82
2022/05/05 17:29:27;;;;;;;14.07;6.35;;;;;;;19.06;49.77;99315.60;4106609;85;21329;-82
2022/05/05 17:35:29;;;;;;;104.35;40.20;;;;;;;18.52;50.84;99341.28;4092742;84;21722;-82
2022/05/05 17:41:31;;;;;;;6.83;4.10;;;;;;;18.28;52.76;99347.14;4089355;85;21003;-82
2022/05/05 17:53:53;;;;;;;23.52;4.72;;;;;;;17.77;55.62;99387.00;4082428;85;21025;-80
2022/05/05 17:59:54;;;;;;;9.28;3.62;;;;;;;17.69;56.17;99414.58;3967290;85;10000469;-80
2022/05/05 18:05:56;;;;;;;19.80;5.17;;;;;;;17.44;56.62;99422.91;4089116;85;21015;-81
2022/05/05 18:12:02;;;;;;;3.80;2.58;;;;;;;17.15;57.90;99418.22;4097491;87;21063;-82
2022/05/05 18:18:03;;;;;;;6.03;2.75;;;;;;;16.85;58.24;99427.16;4086651;85;21084;-81
2022/05/05 18:24:05;;;;;;;6.25;2.27;;;;;;;16.60;57.39;99434.05;4087542;85;21039;-81
2022/05/05 18:30:09;;;;;;;4.37;2.75;;;;;;;16.45;57.68;99437.48;4082754;85;21986;-81
2022/05/05 18:36:11;;;;;;;10.15;3.80;;;;;;;16.18;58.68;99446.06;4087051;85;21024;-81
2022/05/05 18:42:13;;;;;;;10.72;3.20;;;;;;;15.93;59.96;99458.41;4078463;85;21064;-82
2022/05/05 18:48:15;;;;;;;8.63;3.45;;;;;;;15.72;61.18;99468.11;4081494;85;21552;-81
2022/05/05 18:54:16;;;;;;;6.83;3.85;;;;;;;15.45;62.26;99479.59;4085432;85;21080;-82
2022/05/05 19:00:19;;;;;;;7.60;4.03;;;;;;;15.27;63.33;99491.17;3968793;85;10000416;-81
2022/05/05 19:06:21;;;;;;;9.85;5.15;;;;;;;15.16;64.35;99502.79;4079871;85;21004;-83
2022/05/05 19:12:32;;;;;;;67.17;20.52;;;;;;;15.01;64.76;99515.58;4080717;85;21072;-82
2022/05/05 19:18:33;;;;;;;20.85;8.25;;;;;;;14.70;71.86;99536.97;4077823;87;20998;-81
2022/05/05 19:24:35;;;;;;;13.62;6.00;;;;;;;14.10;72.96;99569.13;4086043;85;21013;-81
2022/05/05 19:30:36;;;;;;;10.88;6.28;;;;;;;14.03;73.98;99558.06;4082602;85;21083;-82
2022/05/05 19:36:38;;;;;;;14.18;6.60;;;;;;;13.93;71.78;99561.55;4080009;85;21079;-82
2022/05/05 19:42:40;;;;;;;17.85;6.55;;;;;;;13.87;72.11;99543.83;4089252;85;21146;-81
2022/05/05 19:48:42;;;;;;;11.60;6.78;;;;;;;13.90;72.67;99544.44;4082706;85;21016;-81
2022/05/05 19:54:43;;;;;;;9.65;6.00;;;;;;;13.97;72.75;99530.70;4081864;85;21052;-82
2022/05/05 20:13:36;;;;;;;10.70;6.45;;;;;;;13.94;73.84;99519.66;4085839;85;22106;-81
2022/05/05 20:19:37;;;;;;;8.90;5.83;;;;;;;13.79;74.86;99503.67;4077656;85;21445;-81
2022/05/05 20:25:38;;;;;;;17.02;7.80;;;;;;;13.64;76.43;99497.86;4086253;85;21004;-82
2022/05/05 20:31:40;;;;;;;9.83;6.67;;;;;;;13.56;76.48;99482.47;4083713;85;21039;-82
2022/05/05 20:37:41;;;;;;;9.58;6.47;;;;;;;13.55;76.48;99482.86;4088235;85;21048;-81
2022/05/05 20:43:43;;;;;;;10.70;6.72;;;;;;;13.61;77.29;99475.82;4081523;85;21029;-81
2022/05/05 20:49:44;;;;;;;9.03;6.33;;;;;;;13.52;77.58;99467.13;4082332;85;21135;-81
2022/05/05 20:55:45;;;;;;;7.95;6.55;;;;;;;13.45;77.96;99453.34;4090500;85;21508;-80
2022/05/05 21:01:48;;;;;;;8.93;7.08;;;;;;;13.54;78.42;99470.29;4086197;85;21028;-81
2022/05/05 21:07:50;;;;;;;7.85;6.67;;;;;;;13.60;78.83;99487.43;4085873;85;21051;-81
2022/05/05 21:13:51;;;;;;;9.80;8.18;;;;;;;13.66;79.00;99508.48;4085918;85;21024;-81
2022/05/05 21:26:12;;;;;;;22.20;11.68;;;;;;;13.33;79.13;99483.88;4088294;85;21059;-80
2022/05/05 21:32:14;;;;;;;15.32;9.73;;;;;;;13.33;80.01;99475.05;4096000;85;21043;-81
2022/05/05 21:38:15;;;;;;;11.80;7.97;;;;;;;13.21;80.09;99468.48;4127901;84;21051;-81
2022/05/05 21:44:17;;;;;;;11.35;8.33;;;;;;;13.06;80.88;99470.89;4118020;85;21066;-81
2022/05/05 21:50:18;;;;;;;17.23;10.10;;;;;;;13.12;81.43;99474.09;4122561;85;21504;-81
2022/05/05 21:56:22;;;;;;;16.27;11.03;;;;;;;12.99;81.78;99482.37;4116592;85;21471;-81
2022/05/05 22:02:24;;;;;;;14.07;10.48;;;;;;;13.03;81.82;99484.63;4114597;85;21135;-82
2022/05/05 22:08:28;;;;;;;12.75;9.73;;;;;;;12.84;81.77;99480.67;4121036;84;21042;-80
2022/05/05 22:14:29;;;;;;;17.75;10.93;;;;;;;12.77;82.86;99488.83;4112408;85;21173;-81
2022/05/05 22:20:32;;;;;;;17.10;12.15;;;;;;;12.72;83.53;99486.45;4120827;84;20999;-83
2022/05/05 22:26:33;;;;;;;20.05;13.22;;;;;;;12.80;83.89;99502.61;4121402;84;21043;-81
2022/05/05 22:32:35;;;;;;;15.38;10.25;;;;;;;12.85;83.52;99481.67;4116880;85;21016;-80
2022/05/05 22:38:37;;;;;;;15.53;10.70;;;;;;;12.67;85.01;99481.29;4086974;85;21090;-80
2022/05/05 22:44:38;;;;;;;37.67;19.07;;;;;;;12.58;85.12;99473.34;4089492;85;21044;-80
2022/05/05 22:50:40;;;;;;;16.10;11.55;;;;;;;12.54;85.24;99463.69;4086375;85;21019;-80
2022/05/05 22:56:41;;;;;;;16.77;12.20;;;;;;;12.50;85.28;99457.95;4091453;85;21050;-80
2022/05/05 23:02:43;;;;;;;15.78;11.95;;;;;;;12.35;85.14;99447.98;4087705;85;21016;-81
2022/05/05 23:08:44;;;;;;;14.03;11.25;;;;;;;12.18;85.30;99451.33;4085503;85;21127;-81
2022/05/05 23:14:46;;;;;;;13.03;11.03;;;;;;;12.01;86.14;99458.77;4087457;85;20984;-80
2022/05/05 23:20:47;;;;;;;16.60;12.70;;;;;;;12.19;86.65;99457.02;4090460;85;21182;-81
2022/05/05 23:26:48;;;;;;;16.50;11.12;;;;;;;12.09;86.01;99449.46;4083131;85;21104;-81
2022/05/05 23:32:50;;;;;;;18.62;12.93;;;;;;;12.00;86.87;99462.08;4093882;84;21135;-81
2022/05/05 23:38:52;;;;;;;14.85;11.65;;;;;;;12.07;86.82;99453.95;4087327;85;22101;-80
2022/05/05 23:44:54;;;;;;;18.80;12.23;;;;;;;11.92;87.03;99454.91;4089408;85;21604;-82
2022/05/05 23:57:15;;;;;;;12.18;9.75;;;;;;;11.62;86.87;99445.85;4086901;85;21083;-81
